sensor_id;sensor_type;location;lat;lon;timestamp;P1;durP1;ratioP1;P2;durP2;ratioP2
77359;SDS011;66426;51.454;7.266;2023-02-22T00:00:52;56.20;;;15.55;;
77359;SDS011;66426;51.454;7.266;2023-02-22T00:01:53;52.90;;;15.30;;
77359;SDS011;66426;51.454;7.266;2023-02-22T00:03:11;53.20;;;16.17;;
77359;SDS011;66426;51.454;7.266;2023-02-22T00:04:15;57.50;;;14.90;;
77359;SDS011;66426;51.454;7.266;2023-02-22T00:05:18;47.25;;;15.25;;
77359;SDS011;66426;51.454;7.266;2023-02-22T00:06:20;52.55;;;16.33;;
77359;SDS011;66426;51.454;7.266;2023-02-22T00:07:24;55.80;;;15.55;;
77359;SDS011;66426;51.454;7.266;2023-02-22T00:08:26;45.95;;;15.98;;
77359;SDS011;66426;51.454;7.266;2023-02-22T00:09:29;50.05;;;15.05;;
77359;SDS011;66426;51.454;7.266;2023-02-22T00:10:30;50.25;;;15.48;;
77359;SDS011;66426;51.454;7.266;2023-02-22T00:11:31;53.65;;;16.27;;
77359;SDS011;66426;51.454;7.266;2023-02-22T00:12:35;51.50;;;15.18;;
77359;SDS011;66426;51.454;7.266;2023-02-22T00:13:36;53.63;;;15.43;;
77359;SDS011;66426;51.454;7.266;2023-02-22T00:14:37;54.30;;;16.50;;
77359;SDS011;66426;51.454;7.266;2023-02-22T00:15:41;51.83;;;16.67;;
77359;SDS011;66426;51.454;7.266;2023-02-22T00:16:42;57.17;;;16.23;;
77359;SDS011;66426;51.454;7.266;2023-02-22T00:17:43;57.13;;;17.27;;
77359;SDS011;66426;51.454;7.266;2023-02-22T00:18:44;52.42;;;15.90;;
77359;SDS011;66426;51.454;7.266;2023-02-22T00:19:46;53.45;;;16.58;;
77359;SDS011;66426;51.454;7.266;2023-02-22T00:20:48;59.58;;;16.65;;
77359;SDS011;66426;51.454;7.266;2023-02-22T00:21:50;58.22;;;16.48;;
77359;SDS011;66426;51.454;7.266;2023-02-22T00:22:52;56.75;;;16.58;;
77359;SDS011;66426;51.454;7.266;2023-02-22T00:23:53;51.80;;;16.65;;
77359;SDS011;66426;51.454;7.266;2023-02-22T00:24:55;46.33;;;16.08;;
77359;SDS011;66426;51.454;7.266;2023-02-22T00:25:57;48.72;;;15.88;;
77359;SDS011;66426;51.454;7.266;2023-02-22T00:26:59;55.38;;;15.63;;
77359;SDS011;66426;51.454;7.266;2023-02-22T00:28:03;55.40;;;16.70;;
77359;SDS011;66426;51.454;7.266;2023-02-22T00:29:04;57.42;;;16.67;;
77359;SDS011;66426;51.454;7.266;2023-02-22T00:30:06;59.45;;;16.92;;
77359;SDS011;66426;51.454;7.266;2023-02-22T00:31:10;54.63;;;16.50;;
77359;SDS011;66426;51.454;7.266;2023-02-22T00:32:11;58.38;;;15.32;;
77359;SDS011;66426;51.454;7.266;2023-02-22T00:33:12;57.35;;;15.07;;
77359;SDS011;66426;51.454;7.266;2023-02-22T00:34:14;44.45;;;14.18;;
77359;SDS011;66426;51.454;7.266;2023-02-22T00:35:16;48.13;;;14.38;;
77359;SDS011;66426;51.454;7.266;2023-02-22T00:36:20;47.55;;;15.23;;
77359;SDS011;66426;51.454;7.266;2023-02-22T00:37:21;51.60;;;16.15;;
77359;SDS011;66426;51.454;7.266;2023-02-22T00:38:22;58.83;;;15.68;;
77359;SDS011;66426;51.454;7.266;2023-02-22T00:39:23;65.07;;;16.67;;
77359;SDS011;66426;51.454;7.266;2023-02-22T00:40:25;65.68;;;15.07;;
77359;SDS011;66426;51.454;7.266;2023-02-22T00:41:30;56.30;;;16.52;;
77359;SDS011;66426;51.454;7.266;2023-02-22T00:42:31;60.58;;;17.58;;
77359;SDS011;66426;51.454;7.266;2023-02-22T00:43:32;56.85;;;15.52;;
77359;SDS011;66426;51.454;7.266;2023-02-22T00:44:32;53.45;;;17.20;;
77359;SDS011;66426;51.454;7.266;2023-02-22T00:45:34;61.00;;;15.50;;
77359;SDS011;66426;51.454;7.266;2023-02-22T00:46:38;62.90;;;16.10;;
77359;SDS011;66426;51.454;7.266;2023-02-22T00:47:39;70.22;;;16.27;;
77359;SDS011;66426;51.454;7.266;2023-02-22T00:48:40;53.65;;;15.45;;
77359;SDS011;66426;51.454;7.266;2023-02-22T00:49:40;54.22;;;15.98;;
77359;SDS011;66426;51.454;7.266;2023-02-22T00:50:41;63.33;;;15.82;;
77359;SDS011;66426;51.454;7.266;2023-02-22T00:51:42;57.42;;;16.55;;
77359;SDS011;66426;51.454;7.266;2023-02-22T00:52:44;64.80;;;16.65;;
77359;SDS011;66426;51.454;7.266;2023-02-22T00:53:45;110.03;;;17.38;;
77359;SDS011;66426;51.454;7.266;2023-02-22T00:54:46;93.38;;;16.40;;
77359;SDS011;66426;51.454;7.266;2023-02-22T00:55:47;70.20;;;16.23;;
77359;SDS011;66426;51.454;7.266;2023-02-22T00:56:48;117.50;;;17.27;;
77359;SDS011;66426;51.454;7.266;2023-02-22T00:57:50;52.97;;;14.90;;
77359;SDS011;66426;51.454;7.266;2023-02-22T00:58:51;53.83;;;15.73;;
77359;SDS011;66426;51.454;7.266;2023-02-22T00:59:52;51.38;;;14.70;;
77359;SDS011;66426;51.454;7.266;2023-02-22T01:00:53;52.08;;;14.82;;
77359;SDS011;66426;51.454;7.266;2023-02-22T01:01:55;60.03;;;15.77;;
77359;SDS011;66426;51.454;7.266;2023-02-22T01:02:56;64.15;;;14.63;;
77359;SDS011;66426;51.454;7.266;2023-02-22T01:03:58;68.65;;;15.82;;
77359;SDS011;66426;51.454;7.266;2023-02-22T01:04:59;55.53;;;14.82;;
77359;SDS011;66426;51.454;7.266;2023-02-22T01:06:00;56.72;;;14.05;;
77359;SDS011;66426;51.454;7.266;2023-02-22T01:07:01;61.58;;;14.27;;
77359;SDS011;66426;51.454;7.266;2023-02-22T01:08:03;82.35;;;14.90;;
77359;SDS011;66426;51.454;7.266;2023-02-22T01:09:06;53.42;;;12.57;;
77359;SDS011;66426;51.454;7.266;2023-02-22T01:10:10;52.40;;;13.00;;
77359;SDS011;66426;51.454;7.266;2023-02-22T01:11:12;102.95;;;15.65;;
77359;SDS011;66426;51.454;7.266;2023-02-22T01:12:14;87.47;;;14.23;;
77359;SDS011;66426;51.454;7.266;2023-02-22T01:13:15;86.10;;;14.95;;
77359;SDS011;66426;51.454;7.266;2023-02-22T01:14:19;60.55;;;13.20;;
77359;SDS011;66426;51.454;7.266;2023-02-22T01:15:21;111.95;;;14.88;;
77359;SDS011;66426;51.454;7.266;2023-02-22T01:16:24;69.60;;;14.15;;
77359;SDS011;66426;51.454;7.266;2023-02-22T01:17:26;62.35;;;14.20;;
77359;SDS011;66426;51.454;7.266;2023-02-22T01:18:27;66.68;;;14.10;;
77359;SDS011;66426;51.454;7.266;2023-02-22T01:19:28;52.40;;;13.13;;
77359;SDS011;66426;51.454;7.266;2023-02-22T01:20:31;65.00;;;13.68;;
77359;SDS011;66426;51.454;7.266;2023-02-22T01:21:32;59.63;;;12.52;;
77359;SDS011;66426;51.454;7.266;2023-02-22T01:22:33;63.90;;;12.77;;
77359;SDS011;66426;51.454;7.266;2023-02-22T01:23:34;90.53;;;13.38;;
77359;SDS011;66426;51.454;7.266;2023-02-22T01:24:35;73.35;;;13.50;;
77359;SDS011;66426;51.454;7.266;2023-02-22T01:25:36;45.08;;;12.43;;
77359;SDS011;66426;51.454;7.266;2023-02-22T01:26:37;63.08;;;12.77;;
77359;SDS011;66426;51.454;7.266;2023-02-22T01:27:38;71.45;;;13.40;;
77359;SDS011;66426;51.454;7.266;2023-02-22T01:28:40;49.05;;;12.50;;
77359;SDS011;66426;51.454;7.266;2023-02-22T01:29:41;72.95;;;13.13;;
77359;SDS011;66426;51.454;7.266;2023-02-22T01:30:42;61.22;;;12.38;;
77359;SDS011;66426;51.454;7.266;2023-02-22T01:31:49;50.47;;;12.05;;
77359;SDS011;66426;51.454;7.266;2023-02-22T01:32:52;61.50;;;11.50;;
77359;SDS011;66426;51.454;7.266;2023-02-22T01:33:53;56.67;;;11.57;;
77359;SDS011;66426;51.454;7.266;2023-02-22T01:34:54;79.13;;;12.23;;
77359;SDS011;66426;51.454;7.266;2023-02-22T01:35:56;53.15;;;12.35;;
77359;SDS011;66426;51.454;7.266;2023-02-22T01:36:57;46.30;;;12.57;;
77359;SDS011;66426;51.454;7.266;2023-02-22T01:37:58;74.20;;;13.35;;
77359;SDS011;66426;51.454;7.266;2023-02-22T01:38:59;73.40;;;14.00;;
77359;SDS011;66426;51.454;7.266;2023-02-22T01:40:00;131.63;;;13.07;;
77359;SDS011;66426;51.454;7.266;2023-02-22T01:41:01;85.40;;;13.38;;
77359;SDS011;66426;51.454;7.266;2023-02-22T01:42:04;96.47;;;12.48;;
77359;SDS011;66426;51.454;7.266;2023-02-22T01:43:13;65.93;;;13.98;;
77359;SDS011;66426;51.454;7.266;2023-02-22T01:44:18;53.38;;;11.88;;
77359;SDS011;66426;51.454;7.266;2023-02-22T01:45:41;67.88;;;10.70;;
77359;SDS011;66426;51.454;7.266;2023-02-22T01:46:51;50.63;;;11.35;;
77359;SDS011;66426;51.454;7.266;2023-02-22T01:47:53;56.30;;;12.55;;
77359;SDS011;66426;51.454;7.266;2023-02-22T01:48:55;62.47;;;13.65;;
77359;SDS011;66426;51.454;7.266;2023-02-22T01:49:59;76.50;;;12.63;;
77359;SDS011;66426;51.454;7.266;2023-02-22T01:51:02;72.45;;;12.23;;
77359;SDS011;66426;51.454;7.266;2023-02-22T01:52:11;50.55;;;12.23;;
77359;SDS011;66426;51.454;7.266;2023-02-22T01:53:22;82.57;;;11.80;;
77359;SDS011;66426;51.454;7.266;2023-02-22T01:54:28;65.13;;;11.82;;
77359;SDS011;66426;51.454;7.266;2023-02-22T01:55:32;59.97;;;12.52;;
77359;SDS011;66426;51.454;7.266;2023-02-22T01:56:36;57.72;;;11.13;;
77359;SDS011;66426;51.454;7.266;2023-02-22T01:57:38;107.80;;;13.73;;
77359;SDS011;66426;51.454;7.266;2023-02-22T01:58:40;70.18;;;12.45;;
77359;SDS011;66426;51.454;7.266;2023-02-22T01:59:46;55.05;;;12.40;;
77359;SDS011;66426;51.454;7.266;2023-02-22T02:00:50;82.97;;;13.52;;
77359;SDS011;66426;51.454;7.266;2023-02-22T02:01:51;66.72;;;12.07;;
77359;SDS011;66426;51.454;7.266;2023-02-22T02:02:54;84.00;;;12.00;;
77359;SDS011;66426;51.454;7.266;2023-02-22T02:03:59;90.75;;;13.27;;
77359;SDS011;66426;51.454;7.266;2023-02-22T02:06:08;65.88;;;11.20;;
77359;SDS011;66426;51.454;7.266;2023-02-22T02:07:13;53.22;;;11.80;;
77359;SDS011;66426;51.454;7.266;2023-02-22T02:08:20;69.63;;;13.23;;
77359;SDS011;66426;51.454;7.266;2023-02-22T02:09:37;121.20;;;13.57;;
77359;SDS011;66426;51.454;7.266;2023-02-22T02:10:41;74.70;;;13.10;;
77359;SDS011;66426;51.454;7.266;2023-02-22T02:11:43;78.72;;;13.27;;
77359;SDS011;66426;51.454;7.266;2023-02-22T02:12:46;103.13;;;14.88;;
77359;SDS011;66426;51.454;7.266;2023-02-22T02:13:49;113.55;;;13.07;;
77359;SDS011;66426;51.454;7.266;2023-02-22T02:14:51;106.50;;;14.38;;
77359;SDS011;66426;51.454;7.266;2023-02-22T02:15:52;87.65;;;12.73;;
77359;SDS011;66426;51.454;7.266;2023-02-22T02:16:54;79.57;;;12.60;;
77359;SDS011;66426;51.454;7.266;2023-02-22T02:17:57;81.10;;;12.98;;
77359;SDS011;66426;51.454;7.266;2023-02-22T02:19:00;73.20;;;11.93;;
77359;SDS011;66426;51.454;7.266;2023-02-22T02:20:03;62.33;;;12.13;;
77359;SDS011;66426;51.454;7.266;2023-02-22T02:22:40;68.95;;;11.95;;
77359;SDS011;66426;51.454;7.266;2023-02-22T02:23:53;73.90;;;11.45;;
77359;SDS011;66426;51.454;7.266;2023-02-22T02:25:20;63.83;;;11.05;;
77359;SDS011;66426;51.454;7.266;2023-02-22T02:33:55;36.58;;;9.18;;
77359;SDS011;66426;51.454;7.266;2023-02-22T02:35:03;82.10;;;12.35;;
77359;SDS011;66426;51.454;7.266;2023-02-22T02:36:12;94.95;;;11.43;;
77359;SDS011;66426;51.454;7.266;2023-02-22T02:37:20;59.85;;;11.13;;
77359;SDS011;66426;51.454;7.266;2023-02-22T02:38:29;86.22;;;11.20;;
77359;SDS011;66426;51.454;7.266;2023-02-22T02:39:34;66.13;;;10.90;;
77359;SDS011;66426;51.454;7.266;2023-02-22T02:40:40;76.15;;;12.18;;
77359;SDS011;66426;51.454;7.266;2023-02-22T02:41:48;74.53;;;12.38;;
77359;SDS011;66426;51.454;7.266;2023-02-22T02:42:54;69.55;;;11.10;;
77359;SDS011;66426;51.454;7.266;2023-02-22T02:44:01;64.97;;;10.60;;
77359;SDS011;66426;51.454;7.266;2023-02-22T02:45:07;77.40;;;11.55;;
77359;SDS011;66426;51.454;7.266;2023-02-22T02:46:12;89.25;;;12.27;;
77359;SDS011;66426;51.454;7.266;2023-02-22T02:47:18;95.03;;;12.23;;
77359;SDS011;66426;51.454;7.266;2023-02-22T02:48:24;77.63;;;11.23;;
77359;SDS011;66426;51.454;7.266;2023-02-22T02:49:29;76.18;;;11.60;;
77359;SDS011;66426;51.454;7.266;2023-02-22T02:50:35;112.30;;;12.13;;
77359;SDS011;66426;51.454;7.266;2023-02-22T02:51:42;67.57;;;11.85;;
77359;SDS011;66426;51.454;7.266;2023-02-22T02:52:47;63.55;;;11.93;;
77359;SDS011;66426;51.454;7.266;2023-02-22T02:53:50;41.80;;;11.05;;
77359;SDS011;66426;51.454;7.266;2023-02-22T02:54:53;56.90;;;10.95;;
77359;SDS011;66426;51.454;7.266;2023-02-22T02:55:57;50.05;;;10.60;;
77359;SDS011;66426;51.454;7.266;2023-02-22T02:56:58;64.20;;;12.27;;
77359;SDS011;66426;51.454;7.266;2023-02-22T02:57:59;64.00;;;11.98;;
77359;SDS011;66426;51.454;7.266;2023-02-22T02:59:00;63.25;;;11.63;;
77359;SDS011;66426;51.454;7.266;2023-02-22T03:00:01;41.28;;;10.45;;
77359;SDS011;66426;51.454;7.266;2023-02-22T03:01:03;76.93;;;12.20;;
77359;SDS011;66426;51.454;7.266;2023-02-22T03:02:10;80.75;;;11.15;;
77359;SDS011;66426;51.454;7.266;2023-02-22T03:03:43;82.55;;;11.82;;
77359;SDS011;66426;51.454;7.266;2023-02-22T03:05:01;58.60;;;11.43;;
77359;SDS011;66426;51.454;7.266;2023-02-22T03:06:14;48.78;;;9.32;;
77359;SDS011;66426;51.454;7.266;2023-02-22T03:07:37;73.13;;;10.73;;
77359;SDS011;66426;51.454;7.266;2023-02-22T03:08:50;44.40;;;10.23;;
77359;SDS011;66426;51.454;7.266;2023-02-22T03:10:02;53.10;;;10.35;;
77359;SDS011;66426;51.454;7.266;2023-02-22T03:11:18;56.10;;;10.48;;
77359;SDS011;66426;51.454;7.266;2023-02-22T03:12:24;33.92;;;9.48;;
77359;SDS011;66426;51.454;7.266;2023-02-22T03:13:38;50.53;;;9.10;;
77359;SDS011;66426;51.454;7.266;2023-02-22T03:14:51;54.05;;;10.10;;
77359;SDS011;66426;51.454;7.266;2023-02-22T03:16:02;49.05;;;9.05;;
77359;SDS011;66426;51.454;7.266;2023-02-22T03:17:15;48.42;;;9.25;;
77359;SDS011;66426;51.454;7.266;2023-02-22T03:18:26;45.28;;;9.30;;
77359;SDS011;66426;51.454;7.266;2023-02-22T03:19:34;46.40;;;9.43;;
77359;SDS011;66426;51.454;7.266;2023-02-22T03:20:40;66.40;;;9.40;;
77359;SDS011;66426;51.454;7.266;2023-02-22T03:21:45;53.88;;;9.95;;
77359;SDS011;66426;51.454;7.266;2023-02-22T03:22:56;54.25;;;9.00;;
77359;SDS011;66426;51.454;7.266;2023-02-22T03:24:05;42.10;;;9.18;;
77359;SDS011;66426;51.454;7.266;2023-02-22T03:25:10;49.92;;;9.80;;
77359;SDS011;66426;51.454;7.266;2023-02-22T03:26:18;56.05;;;9.82;;
77359;SDS011;66426;51.454;7.266;2023-02-22T03:27:25;75.75;;;10.85;;
77359;SDS011;66426;51.454;7.266;2023-02-22T03:28:30;59.25;;;9.02;;
77359;SDS011;66426;51.454;7.266;2023-02-22T03:29:33;76.28;;;9.90;;
77359;SDS011;66426;51.454;7.266;2023-02-22T03:30:38;60.03;;;9.43;;
77359;SDS011;66426;51.454;7.266;2023-02-22T03:31:43;52.22;;;8.60;;
77359;SDS011;66426;51.454;7.266;2023-02-22T03:32:50;58.00;;;9.25;;
77359;SDS011;66426;51.454;7.266;2023-02-22T03:33:55;31.80;;;8.68;;
77359;SDS011;66426;51.454;7.266;2023-02-22T03:35:00;41.38;;;8.20;;
77359;SDS011;66426;51.454;7.266;2023-02-22T03:36:07;59.42;;;9.07;;
77359;SDS011;66426;51.454;7.266;2023-02-22T03:37:13;39.38;;;7.90;;
77359;SDS011;66426;51.454;7.266;2023-02-22T03:38:16;63.53;;;9.38;;
77359;SDS011;66426;51.454;7.266;2023-02-22T03:39:20;38.25;;;8.48;;
77359;SDS011;66426;51.454;7.266;2023-02-22T03:40:30;37.42;;;8.38;;
77359;SDS011;66426;51.454;7.266;2023-02-22T03:41:34;37.97;;;7.88;;
77359;SDS011;66426;51.454;7.266;2023-02-22T03:42:40;36.38;;;8.15;;
77359;SDS011;66426;51.454;7.266;2023-02-22T03:43:45;42.15;;;7.72;;
77359;SDS011;66426;51.454;7.266;2023-02-22T03:44:52;40.00;;;7.85;;
77359;SDS011;66426;51.454;7.266;2023-02-22T03:45:54;46.28;;;8.43;;
77359;SDS011;66426;51.454;7.266;2023-02-22T03:46:59;33.60;;;7.60;;
77359;SDS011;66426;51.454;7.266;2023-02-22T03:48:03;36.22;;;8.52;;
77359;SDS011;66426;51.454;7.266;2023-02-22T03:49:13;32.25;;;7.63;;
77359;SDS011;66426;51.454;7.266;2023-02-22T03:50:20;33.22;;;7.68;;
77359;SDS011;66426;51.454;7.266;2023-02-22T03:51:25;37.88;;;7.43;;
77359;SDS011;66426;51.454;7.266;2023-02-22T03:52:27;48.38;;;8.65;;
77359;SDS011;66426;51.454;7.266;2023-02-22T03:53:28;27.25;;;7.45;;
77359;SDS011;66426;51.454;7.266;2023-02-22T03:54:32;39.05;;;7.70;;
77359;SDS011;66426;51.454;7.266;2023-02-22T03:55:34;28.02;;;8.40;;
77359;SDS011;66426;51.454;7.266;2023-02-22T03:56:36;60.65;;;8.07;;
77359;SDS011;66426;51.454;7.266;2023-02-22T03:57:47;42.80;;;8.00;;
77359;SDS011;66426;51.454;7.266;2023-02-22T03:58:51;46.72;;;8.40;;
77359;SDS011;66426;51.454;7.266;2023-02-22T03:59:52;42.30;;;7.07;;
77359;SDS011;66426;51.454;7.266;2023-02-22T04:00:54;37.80;;;7.15;;
77359;SDS011;66426;51.454;7.266;2023-02-22T04:01:55;25.98;;;7.32;;
77359;SDS011;66426;51.454;7.266;2023-02-22T04:02:57;30.88;;;7.05;;
77359;SDS011;66426;51.454;7.266;2023-02-22T04:03:58;29.33;;;7.13;;
77359;SDS011;66426;51.454;7.266;2023-02-22T04:05:01;35.70;;;6.90;;
77359;SDS011;66426;51.454;7.266;2023-02-22T04:06:03;17.92;;;6.45;;
77359;SDS011;66426;51.454;7.266;2023-02-22T04:07:04;33.78;;;7.20;;
77359;SDS011;66426;51.454;7.266;2023-02-22T04:08:05;17.13;;;6.97;;
77359;SDS011;66426;51.454;7.266;2023-02-22T04:09:06;38.97;;;7.43;;
77359;SDS011;66426;51.454;7.266;2023-02-22T04:10:08;31.63;;;7.18;;
77359;SDS011;66426;51.454;7.266;2023-02-22T04:11:09;31.15;;;7.00;;
77359;SDS011;66426;51.454;7.266;2023-02-22T04:12:10;44.38;;;8.63;;
77359;SDS011;66426;51.454;7.266;2023-02-22T04:13:11;36.45;;;6.88;;
77359;SDS011;66426;51.454;7.266;2023-02-22T04:14:14;31.70;;;6.63;;
77359;SDS011;66426;51.454;7.266;2023-02-22T04:15:15;48.33;;;7.60;;
77359;SDS011;66426;51.454;7.266;2023-02-22T04:16:18;26.63;;;7.68;;
77359;SDS011;66426;51.454;7.266;2023-02-22T04:17:19;39.67;;;7.43;;
77359;SDS011;66426;51.454;7.266;2023-02-22T04:18:20;24.85;;;6.10;;
77359;SDS011;66426;51.454;7.266;2023-02-22T04:19:21;51.67;;;7.38;;
77359;SDS011;66426;51.454;7.266;2023-02-22T04:20:23;52.95;;;7.65;;
77359;SDS011;66426;51.454;7.266;2023-02-22T04:21:25;49.15;;;6.93;;
77359;SDS011;66426;51.454;7.266;2023-02-22T04:22:26;41.55;;;6.97;;
77359;SDS011;66426;51.454;7.266;2023-02-22T04:23:27;34.88;;;7.22;;
77359;SDS011;66426;51.454;7.266;2023-02-22T04:24:28;36.00;;;7.05;;
77359;SDS011;66426;51.454;7.266;2023-02-22T04:25:29;49.67;;;8.00;;
77359;SDS011;66426;51.454;7.266;2023-02-22T04:26:30;50.45;;;8.35;;
77359;SDS011;66426;51.454;7.266;2023-02-22T04:27:31;42.78;;;7.20;;
77359;SDS011;66426;51.454;7.266;2023-02-22T04:28:32;33.63;;;8.50;;
77359;SDS011;66426;51.454;7.266;2023-02-22T04:29:33;35.05;;;7.13;;
77359;SDS011;66426;51.454;7.266;2023-02-22T04:30:34;30.63;;;7.40;;
77359;SDS011;66426;51.454;7.266;2023-02-22T04:31:35;33.60;;;6.20;;
77359;SDS011;66426;51.454;7.266;2023-02-22T04:32:36;41.22;;;7.40;;
77359;SDS011;66426;51.454;7.266;2023-02-22T04:33:37;30.25;;;7.85;;
77359;SDS011;66426;51.454;7.266;2023-02-22T04:34:38;29.60;;;7.13;;
77359;SDS011;66426;51.454;7.266;2023-02-22T04:35:40;49.78;;;7.38;;
77359;SDS011;66426;51.454;7.266;2023-02-22T04:36:42;37.00;;;7.00;;
77359;SDS011;66426;51.454;7.266;2023-02-22T04:37:44;24.65;;;6.22;;
77359;SDS011;66426;51.454;7.266;2023-02-22T04:38:45;42.92;;;6.93;;
77359;SDS011;66426;51.454;7.266;2023-02-22T04:39:46;46.63;;;7.13;;
77359;SDS011;66426;51.454;7.266;2023-02-22T04:40:47;37.78;;;7.28;;
77359;SDS011;66426;51.454;7.266;2023-02-22T04:41:48;27.23;;;7.03;;
77359;SDS011;66426;51.454;7.266;2023-02-22T04:42:49;16.25;;;6.05;;
77359;SDS011;66426;51.454;7.266;2023-02-22T04:43:50;28.08;;;6.28;;
77359;SDS011;66426;51.454;7.266;2023-02-22T04:44:51;63.03;;;7.00;;
77359;SDS011;66426;51.454;7.266;2023-02-22T04:45:52;35.60;;;6.32;;
77359;SDS011;66426;51.454;7.266;2023-02-22T04:46:53;26.17;;;5.82;;
77359;SDS011;66426;51.454;7.266;2023-02-22T04:47:54;29.50;;;6.25;;
77359;SDS011;66426;51.454;7.266;2023-02-22T04:48:55;20.00;;;5.93;;
77359;SDS011;66426;51.454;7.266;2023-02-22T04:49:57;16.52;;;5.53;;
77359;SDS011;66426;51.454;7.266;2023-02-22T04:51:01;21.77;;;5.55;;
77359;SDS011;66426;51.454;7.266;2023-02-22T04:52:02;27.40;;;6.00;;
77359;SDS011;66426;51.454;7.266;2023-02-22T04:53:03;32.38;;;6.43;;
77359;SDS011;66426;51.454;7.266;2023-02-22T04:54:04;27.60;;;5.57;;
77359;SDS011;66426;51.454;7.266;2023-02-22T04:55:05;21.50;;;5.78;;
77359;SDS011;66426;51.454;7.266;2023-02-22T04:56:06;25.40;;;5.95;;
77359;SDS011;66426;51.454;7.266;2023-02-22T04:57:07;31.15;;;5.57;;
77359;SDS011;66426;51.454;7.266;2023-02-22T04:58:08;34.60;;;6.68;;
77359;SDS011;66426;51.454;7.266;2023-02-22T04:59:10;22.55;;;6.15;;
77359;SDS011;66426;51.454;7.266;2023-02-22T05:00:14;22.63;;;4.95;;
77359;SDS011;66426;51.454;7.266;2023-02-22T05:01:16;15.80;;;5.82;;
77359;SDS011;66426;51.454;7.266;2023-02-22T05:02:18;12.57;;;5.97;;
77359;SDS011;66426;51.454;7.266;2023-02-22T05:03:19;17.27;;;5.40;;
77359;SDS011;66426;51.454;7.266;2023-02-22T05:04:20;19.30;;;5.47;;
77359;SDS011;66426;51.454;7.266;2023-02-22T05:05:21;16.80;;;5.80;;
77359;SDS011;66426;51.454;7.266;2023-02-22T05:06:24;23.40;;;5.30;;
77359;SDS011;66426;51.454;7.266;2023-02-22T05:07:25;16.35;;;5.55;;
77359;SDS011;66426;51.454;7.266;2023-02-22T05:08:26;19.23;;;6.10;;
77359;SDS011;66426;51.454;7.266;2023-02-22T05:09:27;20.38;;;5.57;;
77359;SDS011;66426;51.454;7.266;2023-02-22T05:10:28;29.17;;;5.72;;
77359;SDS011;66426;51.454;7.266;2023-02-22T05:11:29;15.52;;;5.22;;
77359;SDS011;66426;51.454;7.266;2023-02-22T05:12:30;20.63;;;5.80;;
77359;SDS011;66426;51.454;7.266;2023-02-22T05:13:31;17.58;;;6.05;;
77359;SDS011;66426;51.454;7.266;2023-02-22T05:14:32;18.52;;;4.95;;
77359;SDS011;66426;51.454;7.266;2023-02-22T05:15:33;16.02;;;5.55;;
77359;SDS011;66426;51.454;7.266;2023-02-22T05:16:34;15.27;;;5.32;;
77359;SDS011;66426;51.454;7.266;2023-02-22T05:17:35;11.73;;;5.00;;
77359;SDS011;66426;51.454;7.266;2023-02-22T05:18:36;22.13;;;5.68;;
77359;SDS011;66426;51.454;7.266;2023-02-22T05:19:37;18.77;;;6.18;;
77359;SDS011;66426;51.454;7.266;2023-02-22T05:20:38;16.55;;;5.72;;
77359;SDS011;66426;51.454;7.266;2023-02-22T05:21:41;15.50;;;4.88;;
77359;SDS011;66426;51.454;7.266;2023-02-22T05:22:42;24.25;;;5.38;;
77359;SDS011;66426;51.454;7.266;2023-02-22T05:23:43;14.80;;;5.05;;
77359;SDS011;66426;51.454;7.266;2023-02-22T05:24:44;19.42;;;5.05;;
77359;SDS011;66426;51.454;7.266;2023-02-22T05:25:45;11.43;;;5.47;;
77359;SDS011;66426;51.454;7.266;2023-02-22T05:26:46;17.42;;;5.35;;
77359;SDS011;66426;51.454;7.266;2023-02-22T05:27:48;19.35;;;5.50;;
77359;SDS011;66426;51.454;7.266;2023-02-22T05:28:50;21.27;;;5.75;;
77359;SDS011;66426;51.454;7.266;2023-02-22T05:29:51;13.52;;;4.70;;
77359;SDS011;66426;51.454;7.266;2023-02-22T05:30:52;11.95;;;4.75;;
77359;SDS011;66426;51.454;7.266;2023-02-22T05:31:53;14.15;;;4.95;;
77359;SDS011;66426;51.454;7.266;2023-02-22T05:32:54;16.70;;;5.07;;
77359;SDS011;66426;51.454;7.266;2023-02-22T05:33:55;9.00;;;4.50;;
77359;SDS011;66426;51.454;7.266;2023-02-22T05:34:57;13.48;;;4.38;;
77359;SDS011;66426;51.454;7.266;2023-02-22T05:35:58;20.00;;;5.15;;
77359;SDS011;66426;51.454;7.266;2023-02-22T05:37:01;15.60;;;4.55;;
77359;SDS011;66426;51.454;7.266;2023-02-22T05:38:03;13.60;;;4.47;;
77359;SDS011;66426;51.454;7.266;2023-02-22T05:39:04;10.68;;;4.53;;
77359;SDS011;66426;51.454;7.266;2023-02-22T05:40:05;20.67;;;4.60;;
77359;SDS011;66426;51.454;7.266;2023-02-22T05:41:07;11.68;;;4.85;;
77359;SDS011;66426;51.454;7.266;2023-02-22T05:42:08;12.93;;;4.90;;
77359;SDS011;66426;51.454;7.266;2023-02-22T05:43:09;15.85;;;4.85;;
77359;SDS011;66426;51.454;7.266;2023-02-22T05:44:10;15.85;;;4.68;;
77359;SDS011;66426;51.454;7.266;2023-02-22T05:45:11;18.65;;;5.00;;
77359;SDS011;66426;51.454;7.266;2023-02-22T05:46:13;20.10;;;5.18;;
77359;SDS011;66426;51.454;7.266;2023-02-22T05:47:14;22.80;;;5.07;;
77359;SDS011;66426;51.454;7.266;2023-02-22T05:48:15;12.73;;;5.03;;
77359;SDS011;66426;51.454;7.266;2023-02-22T05:49:16;34.33;;;6.25;;
77359;SDS011;66426;51.454;7.266;2023-02-22T05:50:18;25.63;;;5.38;;
77359;SDS011;66426;51.454;7.266;2023-02-22T05:51:19;45.15;;;5.63;;
77359;SDS011;66426;51.454;7.266;2023-02-22T05:52:22;37.50;;;5.88;;
77359;SDS011;66426;51.454;7.266;2023-02-22T05:53:23;19.13;;;4.40;;
77359;SDS011;66426;51.454;7.266;2023-02-22T05:54:24;47.13;;;6.38;;
77359;SDS011;66426;51.454;7.266;2023-02-22T05:55:25;29.73;;;5.40;;
77359;SDS011;66426;51.454;7.266;2023-02-22T05:56:27;21.23;;;4.85;;
77359;SDS011;66426;51.454;7.266;2023-02-22T05:57:30;40.13;;;5.53;;
77359;SDS011;66426;51.454;7.266;2023-02-22T05:58:31;28.83;;;4.90;;
77359;SDS011;66426;51.454;7.266;2023-02-22T05:59:32;28.65;;;5.72;;
77359;SDS011;66426;51.454;7.266;2023-02-22T06:00:33;23.80;;;4.68;;
77359;SDS011;66426;51.454;7.266;2023-02-22T06:01:34;20.42;;;4.68;;
77359;SDS011;66426;51.454;7.266;2023-02-22T06:02:35;17.75;;;4.25;;
77359;SDS011;66426;51.454;7.266;2023-02-22T06:03:36;23.95;;;5.22;;
77359;SDS011;66426;51.454;7.266;2023-02-22T06:04:37;37.40;;;6.07;;
77359;SDS011;66426;51.454;7.266;2023-02-22T06:05:38;34.25;;;5.30;;
77359;SDS011;66426;51.454;7.266;2023-02-22T06:06:39;22.73;;;5.07;;
77359;SDS011;66426;51.454;7.266;2023-02-22T06:07:42;42.33;;;5.25;;
77359;SDS011;66426;51.454;7.266;2023-02-22T06:08:43;41.42;;;5.88;;
77359;SDS011;66426;51.454;7.266;2023-02-22T06:09:44;23.48;;;5.32;;
77359;SDS011;66426;51.454;7.266;2023-02-22T06:10:45;29.50;;;5.40;;
77359;SDS011;66426;51.454;7.266;2023-02-22T06:11:46;26.33;;;5.18;;
77359;SDS011;66426;51.454;7.266;2023-02-22T06:12:47;35.97;;;5.75;;
77359;SDS011;66426;51.454;7.266;2023-02-22T06:13:49;32.13;;;5.50;;
77359;SDS011;66426;51.454;7.266;2023-02-22T06:15:29;12.90;;;4.53;;
77359;SDS011;66426;51.454;7.266;2023-02-22T06:16:30;15.32;;;5.40;;
77359;SDS011;66426;51.454;7.266;2023-02-22T06:17:31;20.30;;;5.22;;
77359;SDS011;66426;51.454;7.266;2023-02-22T06:18:32;31.33;;;6.20;;
77359;SDS011;66426;51.454;7.266;2023-02-22T06:19:33;31.35;;;5.50;;
77359;SDS011;66426;51.454;7.266;2023-02-22T06:20:34;43.00;;;5.72;;
77359;SDS011;66426;51.454;7.266;2023-02-22T06:21:35;37.90;;;5.82;;
77359;SDS011;66426;51.454;7.266;2023-02-22T06:22:36;37.15;;;5.80;;
77359;SDS011;66426;51.454;7.266;2023-02-22T06:23:37;16.90;;;5.00;;